createdAt,value
2023-07-25T00:01:35.493Z,69.80
2023-07-25T00:03:37.613Z,69.80
2023-07-25T00:05:39.417Z,69.60
2023-07-25T00:07:41.141Z,69.60
2023-07-25T00:09:42.885Z,69.60
2023-07-25T00:11:47.091Z,69.70
2023-07-25T00:13:49.909Z,69.80
2023-07-25T00:15:51.972Z,69.70
2023-07-25T00:17:53.790Z,70.00
2023-07-25T00:19:55.622Z,69.50
2023-07-25T00:21:57.443Z,69.50
2023-07-25T00:23:59.315Z,69.40
2023-07-25T00:26:01.069Z,69.50
2023-07-25T00:28:02.897Z,69.70
2023-07-25T00:30:05.539Z,69.80
2023-07-25T00:32:08.128Z,69.80
2023-07-25T00:34:09.905Z,69.80
2023-07-25T00:36:11.787Z,69.80
2023-07-25T00:38:13.575Z,69.80
2023-07-25T00:40:15.349Z,69.80
2023-07-25T00:42:17.117Z,69.70
2023-07-25T00:44:18.876Z,69.70
2023-07-25T00:46:22.218Z,69.80
2023-07-25T00:48:24.098Z,69.80
2023-07-25T00:50:26.356Z,69.70
2023-07-25T00:52:28.217Z,69.70
2023-07-25T00:54:29.978Z,69.50
2023-07-25T00:56:32.555Z,69.50
2023-07-25T00:58:34.359Z,69.60
2023-07-25T01:00:39.185Z,69.50
2023-07-25T01:02:41.095Z,69.60
2023-07-25T01:04:43.396Z,69.50
2023-07-25T01:06:45.254Z,69.40
2023-07-25T01:08:57.393Z,69.40
2023-07-25T01:10:59.129Z,69.90
2023-07-25T01:13:01.538Z,69.40
2023-07-25T01:15:03.769Z,69.50
2023-07-25T01:17:11.925Z,69.40
2023-07-25T01:19:16.399Z,69.70
2023-07-25T01:21:18.539Z,69.50
2023-07-25T01:23:22.051Z,69.60
2023-07-25T01:25:23.853Z,69.50
2023-07-25T01:27:25.577Z,69.50
2023-07-25T01:29:27.451Z,69.30
2023-07-25T01:31:29.642Z,69.40
2023-07-25T01:33:31.657Z,69.50
2023-07-25T01:35:33.389Z,69.40
2023-07-25T01:37:35.109Z,69.60
2023-07-25T01:39:36.951Z,69.70
2023-07-25T01:41:40.305Z,69.70
2023-07-25T01:43:42.119Z,69.80
2023-07-25T01:45:43.888Z,69.90
2023-07-25T01:47:45.676Z,69.70
2023-07-25T01:49:47.578Z,69.80
2023-07-25T01:51:49.367Z,69.90
2023-07-25T01:53:51.921Z,69.90
2023-07-25T01:55:53.696Z,69.90
2023-07-25T01:57:55.534Z,69.80
2023-07-25T01:59:58.419Z,69.80
2023-07-25T02:02:00.121Z,70.00
2023-07-25T02:04:01.902Z,70.20
2023-07-25T02:06:05.257Z,69.80
2023-07-25T02:08:07.085Z,69.90
2023-07-25T02:10:09.380Z,70.10
2023-07-25T02:12:12.158Z,70.10
2023-07-25T02:14:13.999Z,70.20
2023-07-25T02:16:18.136Z,70.20
2023-07-25T02:18:20.004Z,70.20
2023-07-25T02:20:23.311Z,70.40
2023-07-25T02:22:25.802Z,70.50
2023-07-25T02:24:27.608Z,70.60
2023-07-25T02:26:29.479Z,70.70
2023-07-25T02:28:32.278Z,70.80
2023-07-25T02:30:34.072Z,70.70
2023-07-25T02:32:35.815Z,70.80
2023-07-25T02:34:37.677Z,70.80
2023-07-25T02:36:39.440Z,70.90
2023-07-25T02:38:41.266Z,70.90
2023-07-25T02:40:45.381Z,71.00
2023-07-25T02:42:47.298Z,71.10
2023-07-25T02:44:49.014Z,71.40
2023-07-25T02:46:50.810Z,70.80
2023-07-25T02:48:52.678Z,71.00
2023-07-25T02:50:54.564Z,71.10
2023-07-25T02:52:56.411Z,71.10
2023-07-25T02:54:58.301Z,71.20
2023-07-25T02:57:00.097Z,71.20
2023-07-25T02:59:01.871Z,71.30
2023-07-25T03:01:03.980Z,71.30
2023-07-25T03:03:05.796Z,71.30
2023-07-25T03:05:07.768Z,71.30
2023-07-25T03:07:09.580Z,71.20
2023-07-25T03:09:11.307Z,71.20
2023-07-25T03:11:13.189Z,72.10
2023-07-25T03:13:15.030Z,71.30
2023-07-25T03:15:16.846Z,71.30
2023-07-25T03:17:18.617Z,71.30
2023-07-25T03:19:20.396Z,71.40
2023-07-25T03:21:22.439Z,71.40
2023-07-25T03:23:24.209Z,71.50
2023-07-25T03:25:25.995Z,71.50
2023-07-25T03:27:27.762Z,71.40
2023-07-25T03:29:29.536Z,71.40
2023-07-25T03:31:31.495Z,71.40
2023-07-25T03:33:33.362Z,71.20
2023-07-25T03:35:35.222Z,71.10
2023-07-25T03:37:37.032Z,71.20
2023-07-25T03:39:38.808Z,71.10
2023-07-25T03:41:40.567Z,72.00
2023-07-25T03:43:42.344Z,71.10
2023-07-25T03:45:44.284Z,71.10
2023-07-25T03:47:46.139Z,71.00
2023-07-25T03:49:48.684Z,71.00
2023-07-25T03:51:50.484Z,71.00
2023-07-25T03:53:52.253Z,70.90
2023-07-25T03:55:54.024Z,70.90
2023-07-25T03:57:55.873Z,70.90
2023-07-25T03:59:57.763Z,70.90
2023-07-25T04:01:59.542Z,70.80
2023-07-25T04:04:01.393Z,70.90
2023-07-25T04:06:03.289Z,70.80
2023-07-25T04:08:05.381Z,70.80
2023-07-25T04:10:07.729Z,70.80
2023-07-25T04:12:09.592Z,70.90
2023-07-25T04:14:11.317Z,70.80
2023-07-25T04:16:13.165Z,70.80
2023-07-25T04:18:15.003Z,71.00
2023-07-25T04:20:16.884Z,71.80
2023-07-25T04:22:18.691Z,71.10
2023-07-25T04:24:20.600Z,71.20
2023-07-25T04:26:22.562Z,71.10
2023-07-25T04:28:24.336Z,71.10
2023-07-25T04:30:26.132Z,71.20
2023-07-25T04:32:28.034Z,71.30
2023-07-25T04:34:29.919Z,71.30
2023-07-25T04:36:31.743Z,71.30
2023-07-25T04:38:34.074Z,71.50
2023-07-25T04:40:35.819Z,71.40
2023-07-25T04:42:37.641Z,71.70
2023-07-25T04:44:39.519Z,71.70
2023-07-25T04:46:41.252Z,71.70
2023-07-25T04:48:43.133Z,72.50
2023-07-25T04:50:45.574Z,71.80
2023-07-25T04:52:47.581Z,72.00
2023-07-25T04:54:50.209Z,71.90
2023-07-25T04:56:51.950Z,72.10
2023-07-25T04:58:53.865Z,72.00
2023-07-25T05:00:55.592Z,71.80
2023-07-25T05:02:57.598Z,72.00
2023-07-25T05:04:59.621Z,72.00
2023-07-25T05:07:01.437Z,71.80
2023-07-25T05:09:03.523Z,71.90
2023-07-25T05:11:05.300Z,72.10
2023-07-25T05:13:07.054Z,71.60
2023-07-25T05:15:09.061Z,71.60
2023-07-25T05:17:10.872Z,71.60
2023-07-25T05:19:12.640Z,71.60
2023-07-25T05:21:14.531Z,71.60
2023-07-25T05:23:16.309Z,71.80
2023-07-25T05:25:18.064Z,71.80
2023-07-25T05:27:19.761Z,71.90
2023-07-25T05:29:21.528Z,71.80
2023-07-25T05:31:23.371Z,71.70
2023-07-25T05:33:25.194Z,71.70
2023-07-25T05:35:26.974Z,71.70
2023-07-25T05:37:39.133Z,71.70
2023-07-25T05:39:40.924Z,72.00
2023-07-25T05:41:43.969Z,71.50
2023-07-25T05:43:45.779Z,71.50
2023-07-25T05:45:47.631Z,71.40
2023-07-25T05:47:49.469Z,71.10
2023-07-25T05:49:51.368Z,71.10
2023-07-25T05:51:54.966Z,71.10
2023-07-25T05:53:57.497Z,71.20
2023-07-25T05:55:59.222Z,71.40
2023-07-25T05:58:01.047Z,71.20
2023-07-25T06:00:02.958Z,71.30
2023-07-25T06:02:07.498Z,71.40
2023-07-25T06:04:09.295Z,71.40
2023-07-25T06:06:11.791Z,71.50
2023-07-25T06:08:16.731Z,71.50
2023-07-25T06:10:18.457Z,71.60
2023-07-25T06:12:20.259Z,71.60
2023-07-25T06:14:22.261Z,71.90
2023-07-25T06:16:24.087Z,71.70
2023-07-25T06:18:25.906Z,71.80
2023-07-25T06:20:27.694Z,71.70
2023-07-25T06:22:29.431Z,71.80
2023-07-25T06:24:31.534Z,71.70
2023-07-25T06:26:33.754Z,71.80
2023-07-25T06:28:35.532Z,71.70
2023-07-25T06:30:38.016Z,71.40
2023-07-25T06:32:39.833Z,71.30
2023-07-25T06:34:41.592Z,71.30
2023-07-25T06:36:43.478Z,71.30
2023-07-25T06:38:45.273Z,71.50
2023-07-25T06:40:47.087Z,71.50
2023-07-25T06:42:48.853Z,71.60
2023-07-25T06:44:51.644Z,71.60
2023-07-25T06:46:56.261Z,71.70
2023-07-25T06:48:58.110Z,71.40
2023-07-25T06:50:59.842Z,71.40
2023-07-25T06:53:01.601Z,71.20
2023-07-25T06:55:03.477Z,71.10
2023-07-25T06:57:05.424Z,71.00
2023-07-25T06:59:07.437Z,71.00
2023-07-25T07:01:09.299Z,70.80
2023-07-25T07:03:11.137Z,70.80
2023-07-25T07:05:27.756Z,70.80
2023-07-25T07:07:31.554Z,70.80
2023-07-25T07:09:34.934Z,70.90
2023-07-25T07:11:36.756Z,70.80
2023-07-25T07:13:38.560Z,70.70
2023-07-25T07:15:40.390Z,70.70
2023-07-25T07:17:43.218Z,70.80
2023-07-25T07:19:44.953Z,71.10
2023-07-25T07:21:46.758Z,71.20
2023-07-25T07:23:49.895Z,70.80
2023-07-25T07:25:53.921Z,71.00
2023-07-25T07:27:55.816Z,71.20
2023-07-25T07:29:57.612Z,71.20
2023-07-25T07:32:00.962Z,71.10
2023-07-25T07:34:12.374Z,71.10
2023-07-25T07:36:14.099Z,71.80
2023-07-25T07:38:15.872Z,71.50
2023-07-25T07:40:17.817Z,72.00
2023-07-25T07:42:19.657Z,72.10
2023-07-25T07:44:23.149Z,72.50
2023-07-25T07:46:34.092Z,72.70
2023-07-25T07:48:35.978Z,72.60
2023-07-25T07:50:37.828Z,72.10
2023-07-25T07:52:43.889Z,72.00
2023-07-25T07:54:45.925Z,71.80
2023-07-25T07:56:47.689Z,71.80
2023-07-25T07:58:49.504Z,71.90
2023-07-25T08:00:51.766Z,71.70
2023-07-25T08:02:53.734Z,71.50
2023-07-25T08:04:55.631Z,71.70
2023-07-25T08:06:57.530Z,71.90
2023-07-25T08:08:59.398Z,71.60
2023-07-25T08:11:01.207Z,71.70
2023-07-25T08:13:03.008Z,71.40
2023-07-25T08:15:05.474Z,71.50
2023-07-25T08:17:07.307Z,71.40
2023-07-25T08:19:09.157Z,71.50
2023-07-25T08:21:11.025Z,71.60
2023-07-25T08:23:13.625Z,71.70
2023-07-25T08:25:15.530Z,71.80
2023-07-25T08:27:17.335Z,71.90
2023-07-25T08:29:19.132Z,71.80
2023-07-25T08:31:21.006Z,71.90
2023-07-25T08:33:23.270Z,71.90
2023-07-25T08:35:25.188Z,71.90
2023-07-25T08:37:27.172Z,71.80
2023-07-25T08:39:29.005Z,71.80
2023-07-25T08:41:40.261Z,72.10
2023-07-25T08:43:44.224Z,72.40
2023-07-25T08:45:48.037Z,72.60
2023-07-25T08:47:51.489Z,72.50
2023-07-25T08:49:56.819Z,72.60
2023-07-25T08:52:02.179Z,72.70
2023-07-25T08:54:11.460Z,72.80
2023-07-25T08:56:14.739Z,73.70
2023-07-25T08:58:17.371Z,73.10
2023-07-25T09:00:21.761Z,73.00
2023-07-25T09:02:24.702Z,73.20
2023-07-25T09:04:28.147Z,73.30
2023-07-25T09:06:32.291Z,73.30
2023-07-25T09:08:34.224Z,73.80
2023-07-25T09:10:36.488Z,73.50
2023-07-25T09:12:38.539Z,73.70
2023-07-25T09:14:42.564Z,73.90
2023-07-25T09:16:44.493Z,74.10
2023-07-25T09:18:46.305Z,73.90
2023-07-25T09:20:48.409Z,74.00
2023-07-25T09:22:50.285Z,74.20
2023-07-25T09:24:52.080Z,74.50
2023-07-25T09:26:54.190Z,74.40
2023-07-25T09:29:01.744Z,74.20
2023-07-25T09:31:07.250Z,74.00
2023-07-25T09:33:09.090Z,73.60
2023-07-25T09:35:12.434Z,73.60
2023-07-25T09:37:17.625Z,73.40
2023-07-25T09:39:19.520Z,73.10
2023-07-25T09:41:23.434Z,73.00
2023-07-25T09:43:27.351Z,73.00
2023-07-25T09:45:37.566Z,73.20
2023-07-25T09:47:40.073Z,73.70
2023-07-25T09:49:52.350Z,73.40
2023-07-25T09:52:01.925Z,72.70
2023-07-25T09:54:06.838Z,71.20
2023-07-25T09:56:09.457Z,72.10
2023-07-25T09:58:13.066Z,71.10
2023-07-25T10:00:15.520Z,71.30
2023-07-25T10:02:18.036Z,71.30
2023-07-25T10:04:21.398Z,71.40
2023-07-25T10:06:24.691Z,71.40
2023-07-25T10:08:27.582Z,71.20
2023-07-25T10:10:29.303Z,71.20
2023-07-25T10:12:31.214Z,71.40
2023-07-25T10:14:38.206Z,71.40
2023-07-25T10:16:41.464Z,72.00
2023-07-25T10:18:43.374Z,71.60
2023-07-25T10:20:45.208Z,71.70
2023-07-25T10:22:47.974Z,71.80
2023-07-25T10:24:50.120Z,71.00
2023-07-25T10:27:00.418Z,71.70
2023-07-25T10:29:03.222Z,71.00
2023-07-25T10:31:09.639Z,71.40
2023-07-25T10:33:14.302Z,72.10
2023-07-25T10:35:16.209Z,72.30
2023-07-25T10:37:30.144Z,72.00
2023-07-25T10:39:32.022Z,72.10
2023-07-25T10:41:34.212Z,71.40
2023-07-25T10:43:53.604Z,71.50
2023-07-25T10:45:57.718Z,71.30
2023-07-25T10:48:01.437Z,71.00
2023-07-25T10:50:03.606Z,71.20
2023-07-25T10:52:05.905Z,71.10
2023-07-25T10:54:13.347Z,71.20
2023-07-25T10:56:16.437Z,71.50
2023-07-25T10:58:18.342Z,71.70
2023-07-25T11:00:38.029Z,72.10
2023-07-25T11:02:42.097Z,72.50
2023-07-25T11:04:44.024Z,72.00
2023-07-25T11:06:46.112Z,71.40
2023-07-25T11:08:48.730Z,70.00
2023-07-25T11:10:50.704Z,69.50
2023-07-25T11:13:00.946Z,70.00
2023-07-25T11:15:03.463Z,70.20
2023-07-25T11:17:05.462Z,70.00
2023-07-25T11:19:08.704Z,70.00
2023-07-25T11:21:10.691Z,70.20
2023-07-25T11:23:12.562Z,69.70
2023-07-25T11:25:14.442Z,69.80
2023-07-25T11:27:16.442Z,69.20
2023-07-25T11:29:19.045Z,68.80
2023-07-25T11:31:23.846Z,69.50
2023-07-25T11:33:26.138Z,69.50
2023-07-25T11:35:31.031Z,70.00
2023-07-25T11:37:33.411Z,68.60
2023-07-25T11:39:35.859Z,69.10
2023-07-25T11:41:38.423Z,69.10
2023-07-25T11:43:40.340Z,69.20
2023-07-25T11:45:45.136Z,69.10
2023-07-25T11:47:50.025Z,68.80
2023-07-25T11:50:01.832Z,68.50
2023-07-25T11:52:12.325Z,67.50
2023-07-25T11:54:15.054Z,67.50
2023-07-25T11:56:17.099Z,67.60
2023-07-25T11:58:23.128Z,66.70
2023-07-25T12:00:25.252Z,66.50
2023-07-25T12:02:27.626Z,66.90
2023-07-25T12:04:29.566Z,67.80
2023-07-25T12:06:33.065Z,67.70
2023-07-25T12:08:38.526Z,67.40
2023-07-25T12:10:40.607Z,67.60
2023-07-25T12:12:46.150Z,67.80
2023-07-25T12:14:59.194Z,67.40
2023-07-25T12:17:04.269Z,66.70
2023-07-25T12:19:09.300Z,66.40
2023-07-25T12:21:27.747Z,66.00
2023-07-25T12:23:40.081Z,66.40
2023-07-25T12:25:42.569Z,66.40
2023-07-25T12:27:49.008Z,66.90
2023-07-25T12:29:51.101Z,66.50
2023-07-25T12:31:54.052Z,67.20
2023-07-25T12:33:56.036Z,66.60
2023-07-25T12:35:58.840Z,67.10
2023-07-25T12:38:00.681Z,67.00
2023-07-25T12:40:02.436Z,67.10
2023-07-25T12:42:04.600Z,67.80
2023-07-25T12:44:07.190Z,68.30
2023-07-25T12:46:09.701Z,67.40
2023-07-25T12:48:12.205Z,67.50
2023-07-25T12:50:16.380Z,67.40
2023-07-25T12:52:19.457Z,67.20
2023-07-25T12:54:21.304Z,67.10
2023-07-25T12:56:23.089Z,66.40
2023-07-25T12:58:25.116Z,66.70
2023-07-25T13:00:26.976Z,66.90
2023-07-25T13:02:28.999Z,66.40
2023-07-25T13:04:32.362Z,66.90
2023-07-25T13:06:36.020Z,66.00
2023-07-25T13:08:37.974Z,66.10
2023-07-25T13:10:39.829Z,65.60
2023-07-25T13:12:41.724Z,65.60
2023-07-25T13:14:43.563Z,64.80
2023-07-25T13:16:45.445Z,64.30
2023-07-25T13:18:47.343Z,64.80
2023-07-25T13:20:49.449Z,64.10
2023-07-25T13:22:51.232Z,63.80
2023-07-25T13:24:56.681Z,64.60
2023-07-25T13:26:58.485Z,63.50
2023-07-25T13:29:00.359Z,63.70
2023-07-25T13:31:02.220Z,64.00
2023-07-25T13:33:06.334Z,63.50
2023-07-25T13:35:09.103Z,63.40
2023-07-25T13:37:10.907Z,63.10
2023-07-25T13:39:12.748Z,62.50
2023-07-25T13:41:14.769Z,62.30
2023-07-25T13:43:16.623Z,62.00
2023-07-25T13:45:18.684Z,61.10
2023-07-25T13:47:21.228Z,61.10
2023-07-25T13:49:23.145Z,60.70
2023-07-25T13:51:25.170Z,61.40
2023-07-25T13:53:27.103Z,61.10
2023-07-25T13:55:28.963Z,60.90
2023-07-25T13:57:32.772Z,61.10
2023-07-25T13:59:35.508Z,61.80
2023-07-25T14:01:37.454Z,61.50
2023-07-25T14:03:39.450Z,61.70
2023-07-25T14:05:41.266Z,61.70
2023-07-25T14:07:43.140Z,62.30
2023-07-25T14:09:45.042Z,62.60
2023-07-25T14:11:49.044Z,62.90
2023-07-25T14:13:52.242Z,62.90
2023-07-25T14:15:55.835Z,63.20
2023-07-25T14:17:57.897Z,62.50
2023-07-25T14:19:59.797Z,62.20
2023-07-25T14:22:01.629Z,62.10
2023-07-25T14:24:03.600Z,62.50
2023-07-25T14:26:05.565Z,63.00
2023-07-25T14:28:07.414Z,63.70
2023-07-25T14:30:09.482Z,63.90
2023-07-25T14:32:11.296Z,63.90
2023-07-25T14:34:13.050Z,64.00
2023-07-25T14:36:15.486Z,64.40
2023-07-25T14:38:18.279Z,63.70
2023-07-25T14:40:20.020Z,63.70
2023-07-25T14:42:24.463Z,63.80
2023-07-25T14:44:26.356Z,64.20
2023-07-25T14:46:28.280Z,64.20
2023-07-25T14:48:30.143Z,64.50
2023-07-25T14:50:32.157Z,64.50
2023-07-25T14:52:33.947Z,64.40
2023-07-25T14:54:35.879Z,64.70
2023-07-25T14:56:38.033Z,64.80
2023-07-25T14:58:39.935Z,64.70
2023-07-25T15:00:42.045Z,64.90
2023-07-25T15:02:43.964Z,64.40
2023-07-25T15:04:45.892Z,65.50
2023-07-25T15:06:47.883Z,64.80
2023-07-25T15:08:49.691Z,64.70
2023-07-25T15:10:51.546Z,65.00
2023-07-25T15:12:53.506Z,65.40
2023-07-25T15:14:56.223Z,65.60
2023-07-25T15:16:58.049Z,65.60
2023-07-25T15:18:59.902Z,65.70
2023-07-25T15:21:02.231Z,65.80
2023-07-25T15:23:04.402Z,65.80
2023-07-25T15:25:06.748Z,65.80
2023-07-25T15:27:08.569Z,65.50
2023-07-25T15:29:10.349Z,65.20
2023-07-25T15:31:12.629Z,64.90
2023-07-25T15:33:14.541Z,65.20
2023-07-25T15:35:17.365Z,65.30
2023-07-25T15:37:19.089Z,65.50
2023-07-25T15:39:21.118Z,65.30
2023-07-25T15:41:23.034Z,64.80
2023-07-25T15:43:24.945Z,65.10
2023-07-25T15:45:26.812Z,65.10
2023-07-25T15:47:28.617Z,65.40
2023-07-25T15:49:30.441Z,65.40
2023-07-25T15:51:32.422Z,65.40
2023-07-25T15:53:34.501Z,65.50
2023-07-25T15:55:36.340Z,65.10
2023-07-25T15:57:38.159Z,64.80
2023-07-25T15:59:40.053Z,64.90
2023-07-25T16:01:42.192Z,65.20
2023-07-25T16:03:46.083Z,65.00
2023-07-25T16:05:48.297Z,65.20
2023-07-25T16:07:50.239Z,64.90
2023-07-25T16:09:52.081Z,65.00
2023-07-25T16:11:54.719Z,65.00
2023-07-25T16:13:56.607Z,65.10
2023-07-25T16:15:58.450Z,65.30
2023-07-25T16:18:00.700Z,65.40
2023-07-25T16:20:04.228Z,65.70
2023-07-25T16:22:06.696Z,65.70
2023-07-25T16:24:08.566Z,65.90
2023-07-25T16:26:10.693Z,66.10
2023-07-25T16:28:12.440Z,66.20
2023-07-25T16:30:14.199Z,66.30
2023-07-25T16:32:15.990Z,66.30
2023-07-25T16:34:17.945Z,66.40
2023-07-25T16:36:19.685Z,66.10
2023-07-25T16:38:21.508Z,65.90
2023-07-25T16:40:23.272Z,65.80
2023-07-25T16:42:25.824Z,66.10
2023-07-25T16:44:27.610Z,66.00
2023-07-25T16:46:29.505Z,66.00
2023-07-25T16:48:31.495Z,66.00
2023-07-25T16:50:33.351Z,66.10
2023-07-25T16:52:35.753Z,66.40
2023-07-25T16:54:37.565Z,66.60
2023-07-25T16:56:39.355Z,66.80
2023-07-25T16:58:41.184Z,67.00
2023-07-25T17:00:43.058Z,67.40
2023-07-25T17:02:45.096Z,67.20
2023-07-25T17:04:46.944Z,67.10
2023-07-25T17:06:49.539Z,67.00
2023-07-25T17:08:51.483Z,66.90
2023-07-25T17:10:53.359Z,66.60
2023-07-25T17:12:55.247Z,66.70
2023-07-25T17:14:57.382Z,66.80
2023-07-25T17:16:59.226Z,67.00
2023-07-25T17:19:01.182Z,67.20
2023-07-25T17:21:03.041Z,67.30
2023-07-25T17:23:05.794Z,67.30
2023-07-25T17:25:07.839Z,67.40
2023-07-25T17:27:09.708Z,67.70
2023-07-25T17:29:11.485Z,67.20
2023-07-25T17:31:13.298Z,67.30
2023-07-25T17:33:15.128Z,67.40
2023-07-25T17:35:31.634Z,67.50
2023-07-25T17:37:41.378Z,67.70
2023-07-25T17:39:43.372Z,67.80
2023-07-25T17:41:45.198Z,68.00
2023-07-25T17:43:47.058Z,68.20
2023-07-25T17:45:48.996Z,68.30
2023-07-25T17:47:51.003Z,68.20
2023-07-25T17:49:52.896Z,68.20
2023-07-25T17:51:54.709Z,69.20
2023-07-25T17:53:56.733Z,68.10
2023-07-25T17:55:58.580Z,68.20
2023-07-25T17:58:00.464Z,68.30
2023-07-25T18:00:02.682Z,68.40
2023-07-25T18:02:14.555Z,68.50
2023-07-25T18:04:18.008Z,68.70
2023-07-25T18:06:19.914Z,68.80
2023-07-25T18:08:22.376Z,68.80
2023-07-25T18:10:24.395Z,69.00
2023-07-25T18:12:26.285Z,69.00
2023-07-25T18:14:28.145Z,69.20
2023-07-25T18:16:29.956Z,69.20
2023-07-25T18:18:31.854Z,69.30
2023-07-25T18:20:33.937Z,69.40
2023-07-25T18:22:35.725Z,69.30
2023-07-25T18:24:37.656Z,69.30
2023-07-25T18:26:39.528Z,69.30
2023-07-25T18:28:41.321Z,69.30
2023-07-25T18:30:43.202Z,69.20
2023-07-25T18:32:46.183Z,69.20
2023-07-25T18:34:48.123Z,69.00
2023-07-25T18:36:49.947Z,68.80
2023-07-25T18:38:51.899Z,68.80
2023-07-25T18:40:53.848Z,68.60
2023-07-25T18:42:55.649Z,68.60
2023-07-25T18:44:57.510Z,68.60
2023-07-25T18:46:59.414Z,68.70
2023-07-25T18:49:01.254Z,68.60
2023-07-25T18:51:03.205Z,68.60
2023-07-25T18:53:05.176Z,68.80
2023-07-25T18:55:07.382Z,68.60
2023-07-25T18:57:20.004Z,68.60
2023-07-25T18:59:22.514Z,68.80
2023-07-25T19:01:24.497Z,68.70
2023-07-25T19:03:29.650Z,68.70
2023-07-25T19:05:32.054Z,68.80
2023-07-25T19:07:33.972Z,68.80
2023-07-25T19:09:35.827Z,68.90
2023-07-25T19:11:37.681Z,69.00
2023-07-25T19:13:39.569Z,69.00
2023-07-25T19:15:41.743Z,69.00
2023-07-25T19:17:44.974Z,69.00
2023-07-25T19:19:46.992Z,68.90
2023-07-25T19:21:49.155Z,68.80
2023-07-25T19:23:51.197Z,68.60
2023-07-25T19:26:00.212Z,68.80
2023-07-25T19:28:03.059Z,68.90
2023-07-25T19:30:05.151Z,68.90
2023-07-25T19:32:07.696Z,69.10
2023-07-25T19:34:09.496Z,68.60
2023-07-25T19:36:11.309Z,68.70
2023-07-25T19:38:13.040Z,68.80
2023-07-25T19:40:15.448Z,69.60
2023-07-25T19:42:17.328Z,68.80
2023-07-25T19:44:19.194Z,68.70
2023-07-25T19:46:21.700Z,68.70
2023-07-25T19:48:23.486Z,68.50
2023-07-25T19:50:27.405Z,68.40
2023-07-25T19:52:29.430Z,68.40
2023-07-25T19:54:31.341Z,68.40
2023-07-25T19:56:34.552Z,68.50
2023-07-25T19:58:36.554Z,68.40
2023-07-25T20:00:38.583Z,68.50
2023-07-25T20:02:40.665Z,68.40
2023-07-25T20:04:42.660Z,68.40
2023-07-25T20:06:44.560Z,68.40
2023-07-25T20:08:47.517Z,68.30
2023-07-25T20:10:49.442Z,68.50
2023-07-25T20:12:51.439Z,68.60
2023-07-25T20:14:53.408Z,69.30
2023-07-25T20:16:55.419Z,68.50
2023-07-25T20:18:57.367Z,68.50
2023-07-25T20:21:10.974Z,68.50
2023-07-25T20:23:13.263Z,68.70
2023-07-25T20:25:16.172Z,68.70
2023-07-25T20:27:19.104Z,68.50
2023-07-25T20:29:21.128Z,68.70
2023-07-25T20:31:23.065Z,68.70
2023-07-25T20:33:24.994Z,68.90
2023-07-25T20:35:27.071Z,68.90
2023-07-25T20:37:29.772Z,68.90
2023-07-25T20:39:31.574Z,69.00
2023-07-25T20:41:34.079Z,69.20
2023-07-25T20:43:35.875Z,68.80
2023-07-25T20:45:37.712Z,68.70
2023-07-25T20:47:39.657Z,68.70
2023-07-25T20:49:41.662Z,68.50
2023-07-25T20:51:43.760Z,68.60
2023-07-25T20:53:45.586Z,68.40
2023-07-25T20:55:47.425Z,68.50
2023-07-25T20:57:49.442Z,68.60
2023-07-25T20:59:51.606Z,68.30
2023-07-25T21:01:53.502Z,68.20
2023-07-25T21:03:55.406Z,68.20
2023-07-25T21:05:57.277Z,68.30
2023-07-25T21:07:59.264Z,68.10
2023-07-25T21:10:01.099Z,68.00
2023-07-25T21:12:04.523Z,67.90
2023-07-25T21:14:06.395Z,67.90
2023-07-25T21:16:08.759Z,67.80
2023-07-25T21:18:13.714Z,67.90
2023-07-25T21:20:16.318Z,67.90
2023-07-25T21:22:18.597Z,67.80
2023-07-25T21:24:20.464Z,67.60
2023-07-25T21:26:22.296Z,67.80
2023-07-25T21:28:24.158Z,67.80
2023-07-25T21:30:26.058Z,68.00
2023-07-25T21:32:28.061Z,68.00
2023-07-25T21:34:29.944Z,68.10
2023-07-25T21:36:32.063Z,68.20
2023-07-25T21:38:34.199Z,68.10
2023-07-25T21:40:36.031Z,68.00
2023-07-25T21:42:38.063Z,68.20
2023-07-25T21:44:39.811Z,68.10
2023-07-25T21:46:41.886Z,68.20
2023-07-25T21:48:43.963Z,68.10
2023-07-25T21:50:45.736Z,67.90
2023-07-25T21:52:47.574Z,67.90
2023-07-25T21:54:49.386Z,67.90
2023-07-25T21:56:51.362Z,68.00
2023-07-25T21:58:53.284Z,68.10
2023-07-25T22:00:58.950Z,68.10
2023-07-25T22:03:01.908Z,68.10
2023-07-25T22:05:04.416Z,67.90
2023-07-25T22:07:06.584Z,67.70
2023-07-25T22:09:08.411Z,67.70
2023-07-25T22:11:10.287Z,67.90
2023-07-25T22:13:13.936Z,67.90
2023-07-25T22:15:15.914Z,68.20
2023-07-25T22:17:17.710Z,67.90
2023-07-25T22:19:20.114Z,67.90
2023-07-25T22:21:21.957Z,67.90
2023-07-25T22:23:23.735Z,67.90
2023-07-25T22:25:25.621Z,68.00
2023-07-25T22:27:27.534Z,67.80
2023-07-25T22:29:29.293Z,68.00
2023-07-25T22:31:31.100Z,68.00
2023-07-25T22:33:33.190Z,68.10
2023-07-25T22:35:35.829Z,68.00
2023-07-25T22:37:37.653Z,67.80
2023-07-25T22:39:39.438Z,67.60
2023-07-25T22:41:41.173Z,67.70
2023-07-25T22:43:42.961Z,67.70
2023-07-25T22:45:44.745Z,67.70
2023-07-25T22:47:46.709Z,67.80
2023-07-25T22:49:54.799Z,67.70
2023-07-25T22:51:56.598Z,67.90
2023-07-25T22:53:58.397Z,67.90
2023-07-25T22:56:04.018Z,67.90
2023-07-25T22:58:05.839Z,68.00
2023-07-25T23:00:08.468Z,68.10
2023-07-25T23:02:10.249Z,68.20
2023-07-25T23:04:12.241Z,68.20
2023-07-25T23:06:14.108Z,68.70
2023-07-25T23:08:16.193Z,68.40
2023-07-25T23:10:18.032Z,68.50
2023-07-25T23:12:19.848Z,68.50
2023-07-25T23:14:21.592Z,68.50
2023-07-25T23:16:23.540Z,68.50
2023-07-25T23:18:25.324Z,68.50
2023-07-25T23:20:27.416Z,68.70
2023-07-25T23:22:29.274Z,68.80
2023-07-25T23:24:31.250Z,68.80
2023-07-25T23:26:33.258Z,68.70
2023-07-25T23:28:35.354Z,68.80
2023-07-25T23:30:37.152Z,68.80
2023-07-25T23:32:41.119Z,69.00
2023-07-25T23:34:46.072Z,69.10
2023-07-25T23:36:47.797Z,69.20
2023-07-25T23:38:49.516Z,69.30
2023-07-25T23:40:51.355Z,69.30
2023-07-25T23:42:53.144Z,69.40
2023-07-25T23:44:54.953Z,69.30
2023-07-25T23:46:56.783Z,69.40
2023-07-25T23:48:58.602Z,69.50
2023-07-25T23:51:00.990Z,69.50
2023-07-25T23:53:02.754Z,69.60
2023-07-25T23:55:05.040Z,69.60
2023-07-25T23:57:06.901Z,69.70
2023-07-25T23:59:08.620Z,69.60
